createdAt,value
2018-11-10T00:02:15.975Z,54.17
2018-11-10T00:04:44.417Z,58.20
2018-11-10T00:07:12.949Z,55.20
2018-11-10T00:09:41.287Z,52.47
2018-11-10T00:12:09.738Z,53.13
2018-11-10T00:14:38.201Z,48.50
2018-11-10T00:17:07.135Z,51.83
2018-11-10T00:19:35.480Z,53.07
2018-11-10T00:22:04.067Z,55.87
2018-11-10T00:24:32.636Z,53.83
2018-11-10T00:27:01.267Z,52.73
2018-11-10T00:29:29.548Z,57.60
2018-11-10T00:31:57.932Z,52.93
2018-11-10T00:34:26.363Z,51.90
2018-11-10T00:36:54.818Z,48.87
2018-11-10T00:39:23.138Z,49.57
2018-11-10T00:41:51.451Z,48.13
2018-11-10T00:44:19.759Z,51.07
2018-11-10T00:46:48.149Z,58.40
2018-11-10T00:49:16.716Z,54.47
2018-11-10T00:51:45.583Z,57.20
2018-11-10T00:54:14.013Z,49.03
2018-11-10T00:56:42.385Z,49.33
2018-11-10T00:59:10.687Z,51.67
2018-11-10T01:01:39.026Z,58.13
2018-11-10T01:04:07.446Z,61.93
2018-11-10T01:06:37.403Z,61.50
2018-11-10T01:09:07.697Z,57.63
2018-11-10T01:11:36.035Z,53.60
2018-11-10T01:14:04.406Z,53.93
2018-11-10T01:16:32.763Z,51.67
2018-11-10T01:19:01.043Z,45.13
2018-11-10T01:21:29.368Z,44.77
2018-11-10T01:23:57.658Z,49.17
2018-11-10T01:26:25.986Z,48.80
2018-11-10T01:28:54.341Z,47.70
2018-11-10T01:31:22.780Z,52.57
2018-11-10T01:33:51.180Z,49.40
2018-11-10T01:36:19.475Z,51.73
2018-11-10T01:38:47.838Z,54.07
2018-11-10T01:41:16.297Z,54.23
2018-11-10T01:43:44.696Z,44.87
2018-11-10T01:46:12.983Z,46.23
2018-11-10T01:48:41.321Z,48.67
2018-11-10T01:51:09.610Z,46.53
2018-11-10T01:53:37.918Z,47.77
2018-11-10T01:56:06.391Z,44.70
2018-11-10T01:58:34.752Z,46.40
2018-11-10T02:01:03.072Z,41.17
2018-11-10T02:03:31.394Z,44.30
2018-11-10T02:05:59.734Z,43.77
2018-11-10T02:08:28.104Z,42.27
2018-11-10T02:10:56.392Z,43.13
2018-11-10T02:13:24.709Z,40.03
2018-11-10T02:15:53.013Z,42.33
2018-11-10T02:18:21.347Z,50.13
2018-11-10T02:20:49.674Z,44.60
2018-11-10T02:23:18.589Z,39.70
2018-11-10T02:25:47.001Z,43.93
2018-11-10T02:28:15.679Z,39.87
2018-11-10T02:30:44.354Z,39.73
2018-11-10T02:33:12.698Z,41.13
2018-11-10T02:35:41.006Z,44.07
2018-11-10T02:38:09.331Z,43.47
2018-11-10T02:40:37.627Z,43.17
2018-11-10T02:43:06.193Z,43.33
2018-11-10T02:45:34.779Z,43.97
2018-11-10T02:48:03.099Z,38.70
2018-11-10T02:50:31.433Z,38.73
2018-11-10T02:52:59.735Z,36.93
2018-11-10T02:55:28.183Z,44.80
2018-11-10T02:57:56.770Z,42.27
2018-11-10T03:00:25.096Z,39.40
2018-11-10T03:02:53.418Z,38.87
2018-11-10T03:05:21.699Z,36.93
2018-11-10T03:07:50.022Z,39.57
2018-11-10T03:10:18.308Z,42.13
2018-11-10T03:12:46.682Z,38.73
2018-11-10T03:15:14.982Z,43.10
2018-11-10T03:17:43.315Z,38.83
2018-11-10T03:20:13.648Z,40.20
2018-11-10T03:22:42.020Z,38.40
2018-11-10T03:25:10.692Z,38.93
2018-11-10T03:27:39.157Z,38.73
2018-11-10T03:30:07.793Z,38.13
2018-11-10T03:32:36.535Z,38.07
2018-11-10T03:35:05.411Z,39.80
2018-11-10T03:37:33.708Z,39.97
2018-11-10T03:40:02.325Z,37.93
2018-11-10T03:42:30.731Z,38.30
2018-11-10T03:44:59.073Z,38.03
2018-11-10T03:47:27.463Z,36.57
2018-11-10T03:49:55.839Z,34.90
2018-11-10T03:52:24.189Z,37.50
2018-11-10T03:54:52.498Z,36.33
2018-11-10T03:57:20.908Z,38.97
2018-11-10T03:59:49.193Z,37.30
2018-11-10T04:02:17.663Z,39.33
2018-11-10T04:04:46.091Z,37.30
2018-11-10T04:07:14.626Z,35.03
2018-11-10T04:09:43.382Z,37.67
2018-11-10T04:12:11.785Z,34.33
2018-11-10T04:14:40.310Z,39.93
2018-11-10T04:17:08.824Z,34.57
2018-11-10T04:19:37.146Z,38.17
2018-11-10T04:22:05.690Z,37.20
2018-11-10T04:24:34.122Z,38.50
2018-11-10T04:27:02.423Z,35.30
2018-11-10T04:29:30.755Z,37.60
2018-11-10T04:31:59.162Z,38.67
2018-11-10T04:34:27.451Z,36.87
2018-11-10T04:36:55.769Z,38.20
2018-11-10T04:39:24.306Z,39.67
2018-11-10T04:41:52.609Z,37.03
2018-11-10T04:44:21.103Z,38.50
2018-11-10T04:46:49.598Z,35.33
2018-11-10T04:49:18.095Z,34.93
2018-11-10T04:51:46.484Z,33.80
2018-11-10T04:54:14.759Z,35.67
2018-11-10T04:56:43.112Z,36.37
2018-11-10T04:59:11.412Z,34.97
2018-11-10T05:01:39.699Z,39.03
2018-11-10T05:04:08.082Z,34.10
2018-11-10T05:06:36.387Z,35.80
2018-11-10T05:09:06.133Z,35.87
2018-11-10T05:11:34.440Z,39.93
2018-11-10T05:14:02.834Z,37.67
2018-11-10T05:16:31.217Z,33.60
2018-11-10T05:18:59.595Z,36.33
2018-11-10T05:21:27.956Z,36.47
2018-11-10T05:23:56.260Z,35.37
2018-11-10T05:26:24.634Z,37.70
2018-11-10T05:28:52.943Z,39.63
2018-11-10T05:31:21.292Z,35.90
2018-11-10T05:33:49.651Z,36.20
2018-11-10T05:36:18.036Z,36.63
2018-11-10T05:38:46.398Z,36.60
2018-11-10T05:41:14.738Z,38.07
2018-11-10T05:43:43.090Z,35.57
2018-11-10T05:46:11.373Z,34.17
2018-11-10T05:48:39.687Z,30.83
2018-11-10T05:51:08.054Z,32.83
2018-11-10T05:53:36.417Z,33.73
2018-11-10T05:56:05.441Z,33.87
2018-11-10T05:58:33.775Z,33.30
2018-11-10T06:01:02.194Z,33.20
2018-11-10T06:03:30.530Z,30.50
2018-11-10T06:05:58.894Z,32.63
2018-11-10T06:08:27.214Z,29.40
2018-11-10T06:10:55.517Z,29.00
2018-11-10T06:13:24.129Z,29.37
2018-11-10T06:15:52.632Z,28.23
2018-11-10T06:18:21.011Z,28.63
2018-11-10T06:20:49.507Z,29.10
2018-11-10T06:23:17.867Z,27.47
2018-11-10T06:25:46.240Z,30.00
2018-11-10T06:28:15.490Z,29.43
2018-11-10T06:30:43.818Z,31.10
2018-11-10T06:33:12.126Z,35.07
2018-11-10T06:35:41.849Z,29.97
2018-11-10T06:38:11.030Z,35.43
2018-11-10T06:40:40.493Z,33.43
2018-11-10T06:43:08.924Z,31.43
2018-11-10T06:45:37.273Z,34.93
2018-11-10T06:48:05.944Z,35.10
2018-11-10T06:50:34.339Z,33.97
2018-11-10T06:53:03.923Z,38.57
2018-11-10T06:55:33.540Z,38.07
2018-11-10T06:58:02.738Z,34.80
2018-11-10T07:00:31.210Z,37.03
2018-11-10T07:02:59.526Z,33.20
2018-11-10T07:05:28.458Z,38.63
2018-11-10T07:07:56.818Z,35.40
2018-11-10T07:13:17.678Z,32.70
2018-11-10T07:15:46.330Z,35.70
2018-11-10T07:18:15.153Z,32.27
2018-11-10T07:20:45.092Z,32.03
2018-11-10T07:23:13.442Z,37.53
2018-11-10T07:25:41.905Z,40.70
2018-11-10T07:28:10.266Z,43.27
2018-11-10T07:30:38.894Z,39.50
2018-11-10T07:33:07.206Z,42.53
2018-11-10T07:35:35.534Z,36.50
2018-11-10T07:38:03.869Z,36.67
2018-11-10T07:40:32.181Z,35.67
2018-11-10T07:43:00.529Z,34.80
2018-11-10T07:45:28.836Z,34.77
2018-11-10T07:47:57.135Z,35.13
2018-11-10T07:50:25.623Z,33.73
2018-11-10T07:52:53.931Z,35.50
2018-11-10T07:55:22.487Z,36.87
2018-11-10T07:57:50.780Z,38.30
2018-11-10T08:00:19.588Z,38.17
2018-11-10T08:02:47.888Z,40.83
2018-11-10T08:05:16.955Z,40.33
2018-11-10T08:07:45.908Z,37.03
2018-11-10T08:10:16.304Z,39.67
2018-11-10T08:12:44.750Z,37.47
2018-11-10T08:15:14.802Z,37.43
2018-11-10T08:17:43.315Z,35.37
2018-11-10T08:20:12.508Z,37.83
2018-11-10T08:22:41.158Z,39.53
2018-11-10T08:25:12.155Z,37.97
2018-11-10T08:27:40.640Z,35.57
2018-11-10T08:30:11.116Z,33.33
2018-11-10T08:32:40.090Z,36.33
2018-11-10T08:35:10.202Z,37.60
2018-11-10T08:37:38.810Z,35.57
2018-11-10T08:40:09.154Z,37.20
2018-11-10T08:42:37.615Z,35.80
2018-11-10T08:45:08.088Z,38.23
2018-11-10T08:47:36.446Z,36.50
2018-11-10T08:50:05.638Z,39.37
2018-11-10T08:52:33.960Z,35.57
2018-11-10T08:55:02.436Z,38.90
2018-11-10T08:57:30.734Z,38.43
2018-11-10T08:59:59.044Z,36.60
2018-11-10T09:02:27.374Z,33.80
2018-11-10T09:04:55.716Z,33.37
2018-11-10T09:07:24.470Z,38.67
2018-11-10T09:09:53.067Z,36.47
2018-11-10T09:12:21.487Z,35.53
2018-11-10T09:14:49.854Z,32.07
2018-11-10T09:17:18.142Z,36.13
2018-11-10T09:19:46.473Z,35.13
2018-11-10T09:22:15.043Z,37.93
2018-11-10T09:24:43.319Z,32.97
2018-11-10T09:27:11.668Z,35.87
2018-11-10T09:29:40.083Z,39.83
2018-11-10T09:32:08.356Z,39.90
2018-11-10T09:34:36.664Z,38.27
2018-11-10T09:37:23.540Z,32.07
2018-11-10T09:39:51.900Z,33.93
2018-11-10T09:42:20.429Z,30.17
2018-11-10T09:44:48.696Z,31.43
2018-11-10T09:47:17.016Z,32.20
2018-11-10T09:49:49.142Z,34.73
2018-11-10T09:52:18.406Z,33.73
2018-11-10T09:54:47.811Z,30.83
2018-11-10T09:57:17.435Z,33.97
2018-11-10T09:59:47.600Z,34.17
2018-11-10T10:02:17.858Z,35.20
2018-11-10T10:04:46.049Z,31.90
2018-11-10T10:07:14.391Z,35.00
2018-11-10T10:09:42.714Z,31.47
2018-11-10T10:12:11.139Z,34.83
2018-11-10T10:14:39.415Z,29.87
2018-11-10T10:17:07.727Z,31.07
2018-11-10T10:19:36.031Z,31.43
2018-11-10T10:22:04.382Z,30.50
2018-11-10T10:24:32.672Z,29.20
2018-11-10T10:27:01.035Z,30.77
2018-11-10T10:29:29.330Z,31.00
2018-11-10T10:31:57.960Z,29.67
2018-11-10T10:34:26.403Z,31.50
2018-11-10T10:36:55.145Z,30.00
2018-11-10T10:39:23.551Z,28.47
2018-11-10T10:41:51.987Z,27.47
2018-11-10T10:44:20.414Z,25.07
2018-11-10T10:46:48.825Z,27.73
2018-11-10T10:49:17.537Z,29.10
2018-11-10T10:51:45.924Z,30.40
2018-11-10T10:54:14.851Z,33.40
2018-11-10T10:56:43.164Z,31.20
2018-11-10T10:59:11.584Z,31.97
2018-11-10T11:01:45.209Z,32.43
2018-11-10T11:04:18.892Z,33.30
2018-11-10T11:06:47.222Z,30.10
2018-11-10T11:09:15.602Z,31.47
2018-11-10T11:11:44.043Z,41.23
2018-11-10T11:14:12.382Z,32.53
2018-11-10T11:16:40.716Z,29.20
2018-11-10T11:19:09.133Z,31.33
2018-11-10T11:21:37.494Z,26.53
2018-11-10T11:24:06.158Z,28.40
2018-11-10T11:26:34.479Z,28.90
2018-11-10T11:29:02.813Z,28.43
2018-11-10T11:31:31.208Z,27.33
2018-11-10T11:33:59.546Z,26.30
2018-11-10T11:36:27.948Z,24.93
2018-11-10T11:38:56.254Z,27.07
2018-11-10T11:41:24.668Z,29.50
2018-11-10T11:43:52.919Z,25.47
2018-11-10T11:46:21.214Z,27.97
2018-11-10T11:48:49.524Z,27.97
2018-11-10T11:51:17.778Z,26.27
2018-11-10T11:53:46.118Z,26.43
2018-11-10T11:56:14.385Z,24.53
2018-11-10T11:58:42.711Z,26.23
2018-11-10T12:01:11.469Z,28.97
2018-11-10T12:03:39.844Z,31.77
2018-11-10T12:06:08.121Z,27.53
2018-11-10T12:08:36.428Z,27.93
2018-11-10T12:11:05.172Z,29.57
2018-11-10T12:13:33.521Z,30.77
2018-11-10T12:16:01.945Z,25.07
2018-11-10T12:18:30.275Z,28.87
2018-11-10T12:20:58.687Z,32.83
2018-11-10T12:23:27.062Z,30.83
2018-11-10T12:25:55.360Z,28.23
2018-11-10T12:28:23.950Z,29.37
2018-11-10T12:30:52.236Z,25.70
2018-11-10T12:33:21.451Z,31.80
2018-11-10T12:35:50.445Z,30.77
2018-11-10T12:38:18.987Z,30.90
2018-11-10T12:40:47.465Z,28.77
2018-11-10T12:43:15.888Z,29.13
2018-11-10T12:45:44.419Z,26.30
2018-11-10T12:48:12.731Z,27.50
2018-11-10T12:50:41.022Z,31.50
2018-11-10T12:53:09.326Z,26.43
2018-11-10T12:55:38.074Z,30.13
2018-11-10T12:58:06.504Z,30.83
2018-11-10T13:00:34.875Z,27.17
2018-11-10T13:03:03.400Z,27.30
2018-11-10T13:05:31.835Z,29.00
2018-11-10T13:08:00.386Z,28.47
2018-11-10T13:10:28.721Z,30.20
2018-11-10T13:12:57.259Z,27.40
2018-11-10T13:15:25.674Z,26.20
2018-11-10T13:17:54.044Z,28.63
2018-11-10T13:20:22.618Z,27.77
2018-11-10T13:22:50.921Z,25.10
2018-11-10T13:25:19.405Z,28.27
2018-11-10T13:27:47.827Z,27.80
2018-11-10T13:30:16.719Z,28.00
2018-11-10T13:32:45.622Z,29.43
2018-11-10T13:35:14.012Z,26.03
2018-11-10T13:37:42.311Z,27.57
2018-11-10T13:40:11.713Z,27.27
2018-11-10T13:42:40.180Z,37.57
2018-11-10T13:45:10.292Z,29.30
2018-11-10T13:47:38.670Z,27.87
2018-11-10T13:50:09.077Z,29.20
2018-11-10T13:52:38.267Z,27.33
2018-11-10T13:55:06.325Z,27.73
2018-11-10T13:57:34.658Z,26.63
2018-11-10T14:00:03.947Z,28.53
2018-11-10T14:02:32.302Z,26.77
2018-11-10T14:05:00.863Z,28.63
2018-11-10T14:07:29.181Z,30.93
2018-11-10T14:09:57.539Z,32.50
2018-11-10T14:12:26.231Z,28.00
2018-11-10T14:14:54.435Z,27.93
2018-11-10T14:17:22.822Z,25.13
2018-11-10T14:19:51.097Z,27.13
2018-11-10T14:22:19.406Z,30.47
2018-11-10T14:24:47.731Z,26.80
2018-11-10T14:27:16.023Z,29.27
2018-11-10T14:29:44.390Z,26.20
2018-11-10T14:32:12.683Z,24.17
2018-11-10T14:34:41.008Z,25.77
2018-11-10T14:37:09.351Z,26.90
2018-11-10T14:39:37.679Z,25.37
2018-11-10T14:42:06.007Z,28.57
2018-11-10T14:44:34.350Z,26.20
2018-11-10T14:47:02.787Z,28.77
2018-11-10T14:49:31.148Z,25.83
2018-11-10T14:51:59.580Z,28.10
2018-11-10T14:54:27.930Z,25.77
2018-11-10T14:56:56.587Z,27.67
2018-11-10T14:59:24.952Z,25.63
2018-11-10T15:01:53.234Z,27.00
2018-11-10T15:04:21.598Z,25.23
2018-11-10T15:06:51.661Z,26.90
2018-11-10T15:09:19.992Z,25.97
2018-11-10T15:11:48.436Z,27.47
2018-11-10T15:14:16.634Z,25.57
2018-11-10T15:16:44.952Z,28.87
2018-11-10T15:19:13.245Z,22.20
2018-11-10T15:21:41.571Z,26.33
2018-11-10T15:24:09.886Z,27.00
2018-11-10T15:26:38.785Z,25.30
2018-11-10T15:29:07.350Z,23.70
2018-11-10T15:31:36.768Z,24.07
2018-11-10T15:34:05.570Z,26.37
2018-11-10T15:36:34.625Z,25.43
2018-11-10T15:39:04.702Z,27.80
2018-11-10T15:41:33.287Z,26.47
2018-11-10T15:44:02.140Z,23.87
2018-11-10T15:46:30.616Z,25.60
2018-11-10T15:48:58.979Z,27.30
2018-11-10T15:51:27.262Z,27.90
2018-11-10T15:53:55.727Z,26.50
2018-11-10T15:56:24.052Z,23.93
2018-11-10T15:58:52.350Z,28.30
2018-11-10T16:01:20.850Z,27.37
2018-11-10T16:03:49.482Z,24.60
2018-11-10T16:06:17.736Z,27.70
2018-11-10T16:08:46.061Z,25.47
2018-11-10T16:11:14.459Z,25.47
2018-11-10T16:13:42.847Z,32.37
2018-11-10T16:16:11.345Z,26.13
2018-11-10T16:18:39.718Z,24.73
2018-11-10T16:21:08.816Z,26.53
2018-11-10T16:23:37.334Z,29.33
2018-11-10T16:26:05.826Z,26.00
2018-11-10T16:28:34.257Z,24.93
2018-11-10T16:31:02.743Z,25.03
2018-11-10T16:33:31.188Z,22.63
2018-11-10T16:36:01.293Z,24.67
2018-11-10T16:38:29.924Z,25.57
2018-11-10T16:40:58.263Z,26.27
2018-11-10T16:43:26.680Z,25.30
2018-11-10T16:45:55.114Z,25.30
2018-11-10T16:48:23.487Z,26.30
2018-11-10T16:50:52.287Z,24.33
2018-11-10T16:53:21.372Z,25.23
2018-11-10T16:55:49.811Z,26.30
2018-11-10T16:58:18.219Z,29.53
2018-11-10T17:00:46.777Z,23.70
2018-11-10T17:03:15.265Z,23.50
2018-11-10T17:05:43.926Z,24.73
2018-11-10T17:08:12.530Z,24.77
2018-11-10T17:10:40.931Z,27.90
2018-11-10T17:13:09.452Z,25.27
2018-11-10T17:15:37.924Z,26.90
2018-11-10T17:18:06.182Z,27.43
2018-11-10T17:20:34.494Z,28.73
2018-11-10T17:23:02.919Z,25.43
2018-11-10T17:25:31.276Z,32.57
2018-11-10T17:28:00.250Z,25.87
2018-11-10T17:30:29.725Z,28.60
2018-11-10T17:32:58.132Z,27.03
2018-11-10T17:35:27.118Z,26.33
2018-11-10T17:37:56.255Z,28.70
2018-11-10T17:40:24.877Z,26.47
2018-11-10T17:42:54.354Z,25.70
2018-11-10T17:45:23.005Z,26.97
2018-11-10T17:47:51.411Z,26.97
2018-11-10T17:50:19.825Z,26.73
2018-11-10T17:52:48.255Z,28.73
2018-11-10T17:55:17.428Z,25.77
2018-11-10T17:57:46.264Z,24.37
2018-11-10T18:00:14.778Z,24.07
2018-11-10T18:02:43.094Z,28.80
2018-11-10T18:05:13.250Z,25.27
2018-11-10T18:07:41.828Z,28.23
2018-11-10T18:10:12.151Z,25.93
2018-11-10T18:12:40.756Z,26.87
2018-11-10T18:15:10.016Z,29.50
2018-11-10T18:17:38.741Z,27.87
2018-11-10T18:20:08.114Z,28.60
2018-11-10T18:22:36.729Z,28.07
2018-11-10T18:25:05.638Z,27.37
2018-11-10T18:27:40.456Z,25.67
2018-11-10T18:30:11.416Z,30.47
2018-11-10T18:32:39.782Z,25.57
2018-11-10T18:38:16.330Z,25.60
2018-11-10T18:40:44.650Z,28.47
2018-11-10T18:43:12.979Z,25.73
2018-11-10T18:45:41.486Z,31.13
2018-11-10T18:48:09.818Z,30.10
2018-11-10T18:50:38.228Z,26.33
2018-11-10T18:53:06.737Z,28.60
2018-11-10T18:55:36.528Z,28.87
2018-11-10T18:58:04.913Z,28.07
2018-11-10T19:00:33.271Z,27.33
2018-11-10T19:03:01.595Z,26.43
2018-11-10T19:05:29.908Z,29.37
2018-11-10T19:07:58.351Z,28.20
2018-11-10T19:10:26.704Z,27.97
2018-11-10T19:12:55.053Z,29.60
2018-11-10T19:15:23.314Z,27.33
2018-11-10T19:17:51.679Z,25.37
2018-11-10T19:20:20.084Z,28.13
2018-11-10T19:22:48.494Z,28.00
2018-11-10T19:25:16.984Z,27.80
2018-11-10T19:27:45.462Z,28.87
2018-11-10T19:30:16.446Z,27.60
2018-11-10T19:32:45.426Z,27.90
2018-11-10T19:35:14.070Z,30.20
2018-11-10T19:37:42.582Z,28.03
2018-11-10T19:40:11.637Z,26.13
2018-11-10T19:42:41.235Z,31.40
2018-11-10T19:45:10.454Z,33.00
2018-11-10T19:47:40.187Z,31.13
2018-11-10T19:50:09.695Z,33.57
2018-11-10T19:52:39.104Z,31.30
2018-11-10T19:55:10.657Z,31.13
2018-11-10T19:57:39.103Z,31.23
2018-11-10T20:00:14.184Z,31.13
2018-11-10T20:02:43.259Z,30.13
2018-11-10T20:05:11.679Z,29.00
2018-11-10T20:07:40.436Z,31.53
2018-11-10T20:10:09.698Z,29.90
2018-11-10T20:12:38.783Z,31.47
2018-11-10T20:15:09.761Z,26.97
2018-11-10T20:17:38.887Z,31.00
2018-11-10T20:20:09.522Z,30.67
2018-11-10T20:22:38.373Z,31.93
2018-11-10T20:25:10.768Z,33.93
2018-11-10T20:27:40.551Z,31.17
2018-11-10T20:30:11.976Z,30.23
2018-11-10T20:32:42.529Z,36.43
2018-11-10T20:35:12.797Z,31.80
2018-11-10T20:37:43.051Z,32.90
2018-11-10T20:40:13.656Z,42.87
2018-11-10T20:42:42.601Z,30.13
2018-11-10T20:45:17.381Z,26.23
2018-11-10T20:47:51.030Z,31.77
2018-11-10T20:50:22.085Z,29.33
2018-11-10T20:52:50.469Z,32.20
2018-11-10T20:55:18.959Z,30.77
2018-11-10T20:57:47.741Z,28.73
2018-11-10T21:00:19.835Z,28.80
2018-11-10T21:02:48.087Z,27.30
2018-11-10T21:05:18.029Z,30.63
2018-11-10T21:07:50.044Z,29.63
2018-11-10T21:10:19.871Z,28.90
2018-11-10T21:12:49.716Z,28.90
2018-11-10T21:15:19.372Z,31.97
2018-11-10T21:17:48.199Z,37.43
2018-11-10T21:20:16.676Z,31.70
2018-11-10T21:22:46.703Z,29.53
2018-11-10T21:25:16.578Z,31.37
2018-11-10T21:27:48.304Z,30.20
2018-11-10T21:30:18.143Z,28.33
2018-11-10T21:32:47.124Z,29.80
2018-11-10T21:35:15.512Z,28.83
2018-11-10T21:37:45.666Z,29.00
2018-11-10T21:40:15.469Z,28.23
2018-11-10T21:42:44.337Z,32.57
2018-11-10T21:45:13.795Z,30.23
2018-11-10T21:47:42.226Z,30.33
2018-11-10T21:50:13.753Z,31.27
2018-11-10T21:52:44.920Z,29.40
2018-11-10T21:55:14.585Z,27.80
2018-11-10T21:57:43.701Z,28.67
2018-11-10T22:00:14.733Z,28.10
2018-11-10T22:02:43.677Z,30.23
2018-11-10T22:05:12.427Z,28.73
2018-11-10T22:07:40.716Z,29.70
2018-11-10T22:10:11.855Z,31.80
2018-11-10T22:12:40.555Z,27.93
2018-11-10T22:15:11.414Z,30.53
2018-11-10T22:17:41.458Z,31.53
2018-11-10T22:20:11.303Z,32.33
2018-11-10T22:22:41.365Z,28.67
2018-11-10T22:25:10.672Z,30.43
2018-11-10T22:27:41.016Z,28.77
2018-11-10T22:30:11.232Z,29.43
2018-11-10T22:32:39.609Z,29.07
2018-11-10T22:35:08.656Z,26.63
2018-11-10T22:37:38.475Z,28.30
2018-11-10T22:40:08.580Z,26.23
2018-11-10T22:42:37.734Z,26.70
2018-11-10T22:45:06.827Z,27.77
2018-11-10T22:47:35.159Z,28.57
2018-11-10T22:50:03.459Z,24.60
2018-11-10T22:52:32.458Z,26.33
2018-11-10T22:55:00.732Z,26.47
2018-11-10T22:57:29.188Z,25.10
2018-11-10T22:59:57.628Z,29.67
2018-11-10T23:02:26.367Z,28.97
2018-11-10T23:04:55.994Z,28.13
2018-11-10T23:07:24.302Z,25.37
2018-11-10T23:09:52.689Z,25.27
2018-11-10T23:12:21.072Z,25.77
2018-11-10T23:14:49.411Z,28.77
2018-11-10T23:17:17.760Z,27.03
2018-11-10T23:19:46.374Z,27.23
2018-11-10T23:22:14.882Z,24.23
2018-11-10T23:24:43.355Z,24.63
2018-11-10T23:27:11.671Z,23.53
2018-11-10T23:29:40.007Z,22.83
2018-11-10T23:32:08.398Z,23.07
2018-11-10T23:34:36.682Z,23.57
2018-11-10T23:37:05.502Z,23.67
2018-11-10T23:39:33.844Z,21.70
2018-11-10T23:42:02.365Z,24.37
2018-11-10T23:44:31.111Z,24.43
2018-11-10T23:46:59.898Z,23.67
2018-11-10T23:49:28.297Z,22.90
2018-11-10T23:51:56.886Z,23.53
2018-11-10T23:54:25.203Z,24.23
2018-11-10T23:56:53.687Z,23.03
2018-11-10T23:59:21.996Z,23.83
